createdAt,value
2023-04-28T00:01:30.296Z,4.46
2023-04-28T00:03:58.741Z,4.36
2023-04-28T00:06:25.567Z,4.31
2023-04-28T00:08:52.324Z,4.23
2023-04-28T00:11:18.972Z,4.25
2023-04-28T00:13:45.774Z,4.15
2023-04-28T00:16:12.536Z,4.17
2023-04-28T00:18:39.264Z,4.15
2023-04-28T00:21:06.510Z,4.18
2023-04-28T00:23:33.351Z,4.13
2023-04-28T00:26:00.038Z,4.08
2023-04-28T00:28:34.255Z,4.01
2023-04-28T00:31:02.060Z,3.98
2023-04-28T00:33:28.650Z,3.99
2023-04-28T00:36:01.498Z,3.92
2023-04-28T00:38:28.734Z,3.88
2023-04-28T00:40:55.542Z,3.80
2023-04-28T00:43:22.395Z,3.81
2023-04-28T00:45:50.589Z,3.85
2023-04-28T00:48:17.977Z,3.69
2023-04-28T00:50:46.115Z,3.72
2023-04-28T00:53:13.241Z,3.72
2023-04-28T00:55:40.125Z,3.66
2023-04-28T00:58:07.579Z,3.67
2023-04-28T01:00:35.055Z,3.64
2023-04-28T01:03:01.979Z,3.61
2023-04-28T01:05:29.543Z,3.66
2023-04-28T01:07:56.296Z,3.51
2023-04-28T01:10:23.092Z,3.60
2023-04-28T01:12:49.745Z,3.50
2023-04-28T01:15:18.153Z,3.65
2023-04-28T01:17:46.223Z,3.59
2023-04-28T01:20:13.241Z,3.57
2023-04-28T01:22:40.100Z,3.53
2023-04-28T01:25:07.025Z,3.54
2023-04-28T01:27:33.678Z,3.51
2023-04-28T01:30:00.479Z,3.62
2023-04-28T01:32:27.131Z,3.60
2023-04-28T01:34:53.844Z,3.49
2023-04-28T01:37:20.810Z,3.44
2023-04-28T01:39:47.510Z,3.44
2023-04-28T01:42:14.209Z,3.23
2023-04-28T01:44:41.285Z,3.22
2023-04-28T01:47:07.930Z,3.27
2023-04-28T01:49:34.510Z,3.30
2023-04-28T01:52:01.180Z,3.20
2023-04-28T01:54:28.347Z,3.15
2023-04-28T01:56:55.041Z,3.21
2023-04-28T01:59:22.095Z,3.20
2023-04-28T02:01:48.988Z,3.09
2023-04-28T02:04:15.927Z,3.01
2023-04-28T02:06:42.878Z,2.97
2023-04-28T02:09:09.522Z,2.91
2023-04-28T02:11:36.254Z,3.12
2023-04-28T02:14:02.928Z,3.10
2023-04-28T02:16:29.829Z,3.10
2023-04-28T02:18:56.580Z,3.02
2023-04-28T02:21:23.189Z,3.08
2023-04-28T02:23:50.564Z,3.04
2023-04-28T02:26:17.335Z,2.96
2023-04-28T02:28:44.198Z,3.02
2023-04-28T02:31:11.804Z,2.99
2023-04-28T02:33:38.560Z,3.09
2023-04-28T02:36:06.299Z,3.13
2023-04-28T02:38:33.410Z,3.14
2023-04-28T02:41:06.622Z,3.22
2023-04-28T02:43:33.859Z,3.21
2023-04-28T02:46:00.871Z,3.23
2023-04-28T02:48:27.506Z,3.19
2023-04-28T02:50:54.246Z,3.21
2023-04-28T02:53:22.202Z,3.23
2023-04-28T02:55:49.424Z,3.22
2023-04-28T02:58:17.945Z,3.34
2023-04-28T03:00:45.077Z,3.27
2023-04-28T03:03:12.172Z,3.33
2023-04-28T03:05:38.997Z,3.36
2023-04-28T03:08:06.259Z,3.42
2023-04-28T03:10:32.861Z,3.33
2023-04-28T03:12:59.734Z,3.35
2023-04-28T03:15:26.797Z,3.36
2023-04-28T03:17:53.517Z,3.44
2023-04-28T03:20:20.562Z,3.34
2023-04-28T03:22:47.224Z,3.38
2023-04-28T03:25:13.889Z,3.26
2023-04-28T03:27:40.823Z,3.29
2023-04-28T03:30:08.009Z,3.19
2023-04-28T03:32:34.873Z,3.19
2023-04-28T03:35:01.770Z,3.09
2023-04-28T03:37:28.394Z,3.07
2023-04-28T03:39:55.104Z,3.06
2023-04-28T03:42:21.906Z,3.21
2023-04-28T03:44:48.547Z,3.28
2023-04-28T03:47:15.239Z,3.35
2023-04-28T03:49:41.914Z,3.42
2023-04-28T03:52:08.570Z,3.41
2023-04-28T03:54:35.388Z,3.49
2023-04-28T03:57:02.099Z,3.54
2023-04-28T03:59:28.738Z,3.54
2023-04-28T04:01:55.593Z,3.59
2023-04-28T04:04:22.690Z,3.66
2023-04-28T04:06:50.085Z,3.66
2023-04-28T04:09:16.898Z,3.65
2023-04-28T04:11:43.652Z,3.68
2023-04-28T04:14:10.624Z,3.73
2023-04-28T04:16:37.427Z,3.77
2023-04-28T04:19:04.191Z,3.49
2023-04-28T04:21:31.829Z,3.64
2023-04-28T04:23:58.602Z,3.72
2023-04-28T04:26:25.624Z,3.65
2023-04-28T04:28:52.477Z,3.76
2023-04-28T04:31:22.842Z,3.89
2023-04-28T04:33:49.651Z,3.83
2023-04-28T04:36:16.533Z,3.88
2023-04-28T04:38:43.178Z,4.04
2023-04-28T04:41:09.794Z,4.13
2023-04-28T04:43:36.469Z,4.16
2023-04-28T04:46:04.248Z,4.77
2023-04-28T04:48:32.336Z,5.71
2023-04-28T04:50:58.966Z,6.57
2023-04-28T04:53:25.740Z,7.69
2023-04-28T04:55:52.447Z,8.58
2023-04-28T04:58:19.232Z,9.14
2023-04-28T05:00:46.018Z,9.49
2023-04-28T05:03:12.940Z,9.61
2023-04-28T05:05:40.212Z,9.93
2023-04-28T05:08:07.002Z,10.16
2023-04-28T05:10:33.915Z,10.30
2023-04-28T05:13:00.749Z,10.56
2023-04-28T05:15:28.247Z,10.56
2023-04-28T05:17:55.189Z,10.11
2023-04-28T05:20:21.846Z,10.24
2023-04-28T05:22:48.501Z,10.42
2023-04-28T05:25:15.655Z,10.11
2023-04-28T05:27:42.300Z,10.06
2023-04-28T05:30:10.357Z,9.99
2023-04-28T05:32:37.984Z,10.01
2023-04-28T05:35:05.105Z,9.34
2023-04-28T05:37:31.712Z,9.48
2023-04-28T05:39:58.340Z,9.43
2023-04-28T05:42:24.978Z,9.28
2023-04-28T05:44:51.629Z,9.11
2023-04-28T05:47:18.217Z,9.04
2023-04-28T05:49:44.908Z,9.30
2023-04-28T05:52:11.643Z,9.43
2023-04-28T05:54:38.286Z,9.14
2023-04-28T05:57:05.387Z,9.27
2023-04-28T05:59:32.434Z,9.46
2023-04-28T06:01:59.144Z,9.30
2023-04-28T06:04:26.304Z,9.49
2023-04-28T06:06:53.615Z,9.31
2023-04-28T06:09:20.410Z,9.22
2023-04-28T06:11:47.177Z,9.37
2023-04-28T06:14:13.874Z,9.79
2023-04-28T06:16:40.743Z,9.74
2023-04-28T06:19:07.584Z,10.02
2023-04-28T06:21:34.260Z,9.49
2023-04-28T06:24:02.026Z,9.66
2023-04-28T06:26:29.258Z,9.73
2023-04-28T06:28:56.137Z,10.00
2023-04-28T06:31:22.825Z,10.07
2023-04-28T06:33:49.596Z,9.67
2023-04-28T06:36:18.132Z,9.88
2023-04-28T06:38:46.023Z,9.89
2023-04-28T06:41:12.959Z,10.12
2023-04-28T06:43:39.867Z,10.02
2023-04-28T06:46:06.994Z,10.27
2023-04-28T06:48:33.850Z,10.00
2023-04-28T06:51:00.533Z,10.07
2023-04-28T06:53:27.314Z,9.96
2023-04-28T06:55:53.961Z,9.90
2023-04-28T06:58:21.089Z,10.03
2023-04-28T07:00:47.853Z,10.19
2023-04-28T07:03:14.638Z,10.16
2023-04-28T07:05:41.412Z,10.44
2023-04-28T07:08:08.090Z,10.30
2023-04-28T07:10:34.745Z,10.77
2023-04-28T07:13:01.400Z,10.67
2023-04-28T07:15:28.647Z,10.55
2023-04-28T07:17:55.459Z,10.53
2023-04-28T07:20:22.221Z,10.80
2023-04-28T07:22:48.839Z,10.98
2023-04-28T07:25:15.546Z,10.79
2023-04-28T07:27:42.286Z,11.10
2023-04-28T07:30:25.203Z,11.42
2023-04-28T07:32:53.830Z,11.09
2023-04-28T07:35:20.598Z,10.44
2023-04-28T07:37:47.399Z,10.54
2023-04-28T07:40:14.279Z,10.43
2023-04-28T07:42:41.133Z,10.68
2023-04-28T07:45:08.213Z,10.49
2023-04-28T07:47:35.287Z,10.85
2023-04-28T07:50:05.130Z,11.13
2023-04-28T07:52:35.143Z,11.04
2023-04-28T07:55:03.205Z,11.27
2023-04-28T07:57:30.816Z,10.99
2023-04-28T07:59:57.679Z,11.11
2023-04-28T08:02:24.479Z,10.94
2023-04-28T08:04:51.463Z,11.51
2023-04-28T08:07:18.188Z,11.90
2023-04-28T08:09:47.540Z,11.89
2023-04-28T08:12:15.025Z,11.80
2023-04-28T08:14:41.694Z,12.17
2023-04-28T08:17:13.474Z,12.06
2023-04-28T08:19:40.270Z,12.44
2023-04-28T08:22:07.822Z,12.47
2023-04-28T08:24:34.542Z,12.02
2023-04-28T08:27:05.582Z,11.93
2023-04-28T08:29:33.181Z,11.88
2023-04-28T08:32:01.908Z,12.07
2023-04-28T08:34:28.615Z,12.13
2023-04-28T08:36:55.254Z,12.32
2023-04-28T08:39:23.569Z,12.30
2023-04-28T08:41:50.784Z,12.16
2023-04-28T08:44:17.924Z,12.09
2023-04-28T08:46:46.717Z,11.86
2023-04-28T08:49:18.650Z,12.18
2023-04-28T08:51:57.427Z,12.12
2023-04-28T08:54:29.956Z,12.33
2023-04-28T08:56:57.345Z,12.38
2023-04-28T08:59:24.465Z,12.36
2023-04-28T09:01:52.402Z,12.44
2023-04-28T09:04:19.908Z,12.47
2023-04-28T09:06:47.279Z,12.04
2023-04-28T09:09:31.740Z,12.24
2023-04-28T09:12:02.294Z,11.98
2023-04-28T09:14:30.457Z,12.33
2023-04-28T09:16:57.562Z,12.79
2023-04-28T09:19:24.793Z,12.85
2023-04-28T09:21:57.928Z,13.29
2023-04-28T09:24:34.874Z,12.98
2023-04-28T09:27:07.596Z,12.92
2023-04-28T09:29:34.324Z,12.79
2023-04-28T09:32:18.538Z,12.72
2023-04-28T09:34:49.635Z,12.76
2023-04-28T09:37:18.188Z,13.00
2023-04-28T09:39:46.302Z,13.22
2023-04-28T09:42:38.210Z,13.30
2023-04-28T09:45:10.178Z,13.44
2023-04-28T09:47:42.813Z,13.49
2023-04-28T09:50:14.396Z,13.38
2023-04-28T09:52:42.767Z,12.98
2023-04-28T09:55:10.309Z,12.84
2023-04-28T09:57:37.213Z,12.83
2023-04-28T10:00:06.746Z,12.87
2023-04-28T10:05:09.991Z,13.09
2023-04-28T10:07:37.660Z,13.03
2023-04-28T10:10:05.552Z,13.35
2023-04-28T10:12:33.250Z,13.40
2023-04-28T10:15:00.481Z,13.64
2023-04-28T10:17:29.684Z,13.43
2023-04-28T10:19:57.309Z,13.25
2023-04-28T10:22:26.929Z,13.41
2023-04-28T10:25:12.085Z,13.69
2023-04-28T10:27:40.728Z,13.77
2023-04-28T10:30:27.596Z,13.58
2023-04-28T10:33:28.497Z,14.01
2023-04-28T10:35:55.646Z,13.83
2023-04-28T10:38:22.813Z,13.92
2023-04-28T10:41:01.707Z,14.14
2023-04-28T10:43:34.182Z,14.21
2023-04-28T10:46:02.938Z,14.12
2023-04-28T10:48:29.901Z,14.24
2023-04-28T10:51:06.108Z,14.10
2023-04-28T10:53:45.735Z,14.20
2023-04-28T10:56:27.214Z,14.11
2023-04-28T10:58:57.913Z,13.84
2023-04-28T11:01:26.127Z,14.34
2023-04-28T11:04:07.542Z,14.64
2023-04-28T11:07:01.241Z,14.85
2023-04-28T11:09:31.456Z,14.73
2023-04-28T11:12:01.236Z,14.65
2023-04-28T11:14:36.237Z,14.49
2023-04-28T11:17:05.796Z,14.59
2023-04-28T11:19:45.038Z,14.82
2023-04-28T11:22:16.205Z,14.90
2023-04-28T11:24:58.867Z,14.96
2023-04-28T11:27:27.031Z,14.90
2023-04-28T11:29:54.391Z,14.58
2023-04-28T11:32:35.237Z,14.42
2023-04-28T11:35:03.859Z,14.78
2023-04-28T11:37:30.866Z,14.83
2023-04-28T11:39:57.570Z,15.15
2023-04-28T11:42:27.191Z,15.28
2023-04-28T11:44:55.147Z,15.25
2023-04-28T11:47:34.770Z,14.99
2023-04-28T11:50:03.350Z,14.98
2023-04-28T11:52:30.612Z,15.35
2023-04-28T11:55:00.384Z,15.41
2023-04-28T11:57:28.261Z,15.61
2023-04-28T12:00:14.426Z,16.05
2023-04-28T12:02:41.579Z,15.77
2023-04-28T12:05:09.210Z,15.46
2023-04-28T12:07:44.444Z,15.89
2023-04-28T12:10:19.882Z,15.71
2023-04-28T12:12:52.366Z,15.85
2023-04-28T12:15:21.823Z,15.77
2023-04-28T12:17:51.248Z,15.73
2023-04-28T12:20:38.261Z,15.76
2023-04-28T12:23:05.938Z,15.58
2023-04-28T12:25:34.190Z,15.46
2023-04-28T12:28:08.520Z,15.64
2023-04-28T12:30:42.849Z,15.60
2023-04-28T12:33:26.271Z,15.85
2023-04-28T12:35:56.808Z,15.81
2023-04-28T12:38:24.719Z,16.07
2023-04-28T12:40:53.013Z,15.85
2023-04-28T12:43:21.857Z,15.46
2023-04-28T12:45:50.313Z,15.60
2023-04-28T12:48:17.257Z,15.52
2023-04-28T12:50:44.270Z,15.79
2023-04-28T12:53:11.459Z,15.95
2023-04-28T12:55:40.583Z,15.88
2023-04-28T12:58:07.281Z,15.74
2023-04-28T13:00:34.085Z,15.71
2023-04-28T13:03:01.157Z,15.75
2023-04-28T13:05:28.446Z,16.08
2023-04-28T13:07:55.666Z,15.96
2023-04-28T13:10:23.542Z,16.28
2023-04-28T13:12:50.380Z,16.53
2023-04-28T13:15:17.741Z,16.71
2023-04-28T13:17:46.621Z,16.72
2023-04-28T13:20:13.402Z,16.61
2023-04-28T13:22:40.484Z,16.72
2023-04-28T13:25:07.582Z,16.60
2023-04-28T13:27:34.209Z,16.42
2023-04-28T13:30:01.138Z,16.50
2023-04-28T13:32:28.296Z,16.62
2023-04-28T13:34:55.140Z,16.43
2023-04-28T13:37:21.786Z,16.41
2023-04-28T13:39:49.487Z,16.54
2023-04-28T13:42:16.378Z,16.53
2023-04-28T13:44:43.005Z,16.50
2023-04-28T13:47:10.946Z,16.52
2023-04-28T13:49:37.628Z,16.40
2023-04-28T13:52:04.249Z,16.49
2023-04-28T13:54:31.334Z,16.65
2023-04-28T13:56:58.068Z,16.90
2023-04-28T13:59:24.967Z,16.91
2023-04-28T14:01:51.763Z,17.02
2023-04-28T14:04:18.916Z,16.99
2023-04-28T14:06:45.679Z,17.03
2023-04-28T14:09:12.354Z,16.99
2023-04-28T14:11:38.974Z,16.70
2023-04-28T14:14:05.632Z,16.39
2023-04-28T14:16:32.335Z,16.41
2023-04-28T14:19:00.594Z,16.43
2023-04-28T14:21:27.236Z,16.62
2023-04-28T14:23:53.994Z,16.74
2023-04-28T14:26:20.810Z,16.81
2023-04-28T14:28:47.913Z,16.53
2023-04-28T14:31:14.599Z,16.39
2023-04-28T14:33:41.376Z,16.49
2023-04-28T14:36:08.099Z,16.60
2023-04-28T14:38:34.776Z,16.81
2023-04-28T14:41:01.466Z,16.91
2023-04-28T14:43:28.194Z,16.77
2023-04-28T14:45:54.994Z,17.20
2023-04-28T14:48:21.817Z,17.25
2023-04-28T14:50:48.642Z,17.33
2023-04-28T14:53:15.307Z,17.18
2023-04-28T14:55:42.310Z,17.22
2023-04-28T14:58:09.031Z,17.28
2023-04-28T15:00:36.181Z,17.19
2023-04-28T15:03:03.147Z,16.89
2023-04-28T15:05:29.883Z,16.62
2023-04-28T15:07:57.065Z,16.72
2023-04-28T15:10:23.884Z,16.61
2023-04-28T15:12:50.582Z,16.48
2023-04-28T15:15:17.293Z,16.42
2023-04-28T15:17:45.543Z,16.38
2023-04-28T15:20:12.285Z,16.51
2023-04-28T15:22:39.092Z,16.38
2023-04-28T15:25:07.005Z,16.44
2023-04-28T15:27:33.851Z,16.63
2023-04-28T15:30:01.360Z,16.60
2023-04-28T15:32:30.399Z,16.37
2023-04-28T15:34:57.419Z,16.19
2023-04-28T15:37:44.921Z,16.23
2023-04-28T15:40:13.517Z,16.02
2023-04-28T15:42:42.595Z,15.94
2023-04-28T15:45:10.506Z,16.04
2023-04-28T15:47:38.946Z,16.03
2023-04-28T15:50:07.089Z,15.83
2023-04-28T15:52:34.120Z,15.77
2023-04-28T15:55:01.052Z,15.85
2023-04-28T15:57:29.572Z,15.66
2023-04-28T15:59:56.336Z,15.70
2023-04-28T16:02:23.543Z,15.69
2023-04-28T16:04:50.635Z,15.71
2023-04-28T16:07:17.620Z,15.51
2023-04-28T16:09:44.215Z,15.53
2023-04-28T16:12:10.911Z,15.50
2023-04-28T16:14:37.586Z,15.28
2023-04-28T16:17:04.434Z,15.25
2023-04-28T16:19:31.068Z,15.08
2023-04-28T16:21:58.356Z,14.89
2023-04-28T16:24:25.906Z,14.79
2023-04-28T16:26:53.329Z,14.82
2023-04-28T16:29:19.963Z,14.66
2023-04-28T16:31:46.720Z,14.54
2023-04-28T16:34:13.585Z,14.51
2023-04-28T16:36:41.339Z,14.44
2023-04-28T16:39:09.494Z,14.60
2023-04-28T16:41:36.425Z,14.59
2023-04-28T16:44:03.355Z,15.00
2023-04-28T16:46:30.176Z,14.78
2023-04-28T16:48:56.866Z,14.73
2023-04-28T16:51:23.482Z,14.67
2023-04-28T16:53:50.094Z,14.56
2023-04-28T16:56:17.210Z,14.40
2023-04-28T16:58:43.905Z,14.37
2023-04-28T17:01:10.709Z,14.30
2023-04-28T17:03:41.923Z,14.21
2023-04-28T17:06:09.195Z,14.09
2023-04-28T17:08:36.054Z,14.00
2023-04-28T17:11:04.449Z,13.95
2023-04-28T17:13:34.195Z,13.82
2023-04-28T17:16:01.724Z,13.62
2023-04-28T17:18:28.698Z,13.57
2023-04-28T17:20:56.656Z,13.42
2023-04-28T17:23:23.325Z,13.35
2023-04-28T17:25:50.206Z,13.23
2023-04-28T17:28:17.004Z,13.03
2023-04-28T17:30:47.092Z,12.88
2023-04-28T17:33:14.178Z,12.85
2023-04-28T17:35:40.932Z,12.77
2023-04-28T17:38:07.591Z,12.68
2023-04-28T17:40:34.211Z,12.52
2023-04-28T17:43:01.101Z,12.40
2023-04-28T17:45:27.918Z,12.26
2023-04-28T17:47:56.483Z,12.09
2023-04-28T17:50:23.703Z,12.10
2023-04-28T17:52:50.521Z,12.06
2023-04-28T17:55:17.371Z,11.97
2023-04-28T17:57:44.236Z,11.89
2023-04-28T18:00:13.018Z,11.82
2023-04-28T18:02:39.708Z,11.74
2023-04-28T18:05:07.349Z,11.62
2023-04-28T18:07:34.135Z,11.62
2023-04-28T18:10:01.041Z,11.52
2023-04-28T18:12:27.721Z,11.53
2023-04-28T18:14:54.540Z,11.46
2023-04-28T18:17:23.257Z,11.54
2023-04-28T18:19:52.318Z,11.49
2023-04-28T18:22:19.142Z,11.31
2023-04-28T18:24:46.163Z,11.13
2023-04-28T18:27:12.964Z,11.20
2023-04-28T18:29:39.711Z,11.13
2023-04-28T18:32:06.850Z,11.15
2023-04-28T18:34:33.634Z,11.12
2023-04-28T18:37:00.208Z,11.18
2023-04-28T18:39:26.816Z,11.19
2023-04-28T18:41:53.476Z,11.09
2023-04-28T18:44:20.241Z,10.90
2023-04-28T18:46:47.030Z,10.72
2023-04-28T18:49:14.698Z,10.71
2023-04-28T18:51:41.662Z,10.78
2023-04-28T18:54:08.512Z,10.79
2023-04-28T18:56:36.126Z,10.77
2023-04-28T18:59:05.954Z,10.70
2023-04-28T19:01:32.763Z,10.66
2023-04-28T19:03:59.504Z,10.64
2023-04-28T19:06:27.011Z,10.64
2023-04-28T19:08:53.609Z,10.52
2023-04-28T19:11:20.603Z,10.47
2023-04-28T19:13:47.381Z,10.33
2023-04-28T19:16:14.263Z,10.26
2023-04-28T19:18:44.604Z,10.32
2023-04-28T19:21:12.379Z,10.22
2023-04-28T19:23:42.115Z,10.25
2023-04-28T19:26:09.701Z,10.24
2023-04-28T19:28:36.698Z,10.24
2023-04-28T19:31:04.419Z,10.27
2023-04-28T19:33:31.495Z,10.12
2023-04-28T19:35:59.988Z,10.17
2023-04-28T19:38:26.770Z,10.17
2023-04-28T19:41:03.635Z,10.11
2023-04-28T19:43:30.807Z,10.01
2023-04-28T19:45:57.986Z,10.08
2023-04-28T19:48:26.326Z,10.00
2023-04-28T19:50:53.072Z,9.86
2023-04-28T19:53:20.148Z,9.73
2023-04-28T19:55:50.397Z,9.73
2023-04-28T19:58:17.391Z,9.70
2023-04-28T20:00:45.361Z,9.67
2023-04-28T20:03:13.124Z,9.80
2023-04-28T20:05:42.528Z,9.84
2023-04-28T20:08:09.417Z,9.87
2023-04-28T20:10:36.068Z,9.83
2023-04-28T20:13:03.080Z,9.81
2023-04-28T20:15:29.767Z,9.79
2023-04-28T20:17:56.950Z,9.80
2023-04-28T20:20:23.830Z,9.78
2023-04-28T20:22:50.897Z,9.67
2023-04-28T20:25:17.679Z,9.67
2023-04-28T20:27:46.818Z,9.78
2023-04-28T20:30:14.147Z,9.92
2023-04-28T20:32:40.937Z,9.80
2023-04-28T20:35:07.842Z,9.72
2023-04-28T20:37:34.472Z,9.70
2023-04-28T20:40:01.146Z,9.61
2023-04-28T20:42:28.057Z,9.54
2023-04-28T20:44:54.730Z,9.06
2023-04-28T20:47:23.380Z,8.96
2023-04-28T20:49:50.418Z,8.77
2023-04-28T20:52:18.669Z,8.57
2023-04-28T20:54:47.037Z,8.45
2023-04-28T20:57:13.683Z,8.22
2023-04-28T20:59:43.995Z,8.21
2023-04-28T21:02:11.328Z,8.06
2023-04-28T21:04:38.185Z,8.07
2023-04-28T21:07:04.903Z,8.03
2023-04-28T21:09:31.657Z,7.97
2023-04-28T21:11:58.371Z,7.98
2023-04-28T21:14:25.465Z,7.86
2023-04-28T21:16:52.834Z,7.67
2023-04-28T21:19:19.582Z,7.69
2023-04-28T21:21:46.278Z,7.57
2023-04-28T21:24:13.111Z,7.37
2023-04-28T21:26:39.926Z,7.42
2023-04-28T21:29:09.327Z,7.37
2023-04-28T21:31:36.247Z,7.47
2023-04-28T21:34:02.913Z,7.47
2023-04-28T21:36:32.170Z,7.29
2023-04-28T21:38:59.466Z,6.98
2023-04-28T21:41:26.658Z,6.77
2023-04-28T21:43:53.572Z,7.00
2023-04-28T21:46:21.644Z,6.86
2023-04-28T21:48:49.716Z,6.80
2023-04-28T21:51:16.979Z,6.66
2023-04-28T21:53:43.938Z,6.62
2023-04-28T21:56:15.166Z,6.46
2023-04-28T21:58:42.097Z,6.18
2023-04-28T22:01:09.101Z,6.26
2023-04-28T22:03:36.524Z,6.30
2023-04-28T22:06:03.607Z,6.11
2023-04-28T22:08:31.727Z,6.09
2023-04-28T22:10:58.884Z,6.00
2023-04-28T22:13:25.710Z,6.03
2023-04-28T22:15:52.522Z,5.86
2023-04-28T22:18:19.529Z,5.49
2023-04-28T22:20:46.957Z,5.59
2023-04-28T22:23:14.095Z,5.68
2023-04-28T22:25:40.970Z,5.40
2023-04-28T22:28:07.971Z,5.67
2023-04-28T22:30:34.915Z,5.63
2023-04-28T22:33:01.640Z,5.59
2023-04-28T22:35:28.434Z,5.71
2023-04-28T22:37:55.264Z,5.68
2023-04-28T22:40:22.567Z,5.71
2023-04-28T22:42:49.481Z,5.71
2023-04-28T22:45:16.704Z,5.46
2023-04-28T22:47:43.599Z,5.74
2023-04-28T22:50:11.656Z,5.71
2023-04-28T22:52:38.665Z,5.87
2023-04-28T22:55:06.462Z,5.88
2023-04-28T22:57:33.265Z,5.72
2023-04-28T22:59:59.933Z,5.82
2023-04-28T23:02:26.628Z,5.82
2023-04-28T23:04:53.936Z,5.74
2023-04-28T23:07:20.733Z,5.63
2023-04-28T23:09:47.437Z,5.42
2023-04-28T23:12:14.111Z,5.49
2023-04-28T23:14:41.011Z,5.45
2023-04-28T23:17:07.720Z,5.41
2023-04-28T23:19:39.519Z,5.46
2023-04-28T23:22:07.514Z,5.30
2023-04-28T23:24:37.427Z,5.41
2023-04-28T23:27:04.474Z,5.35
2023-04-28T23:29:31.560Z,5.10
2023-04-28T23:31:58.533Z,5.32
2023-04-28T23:34:26.351Z,5.12
2023-04-28T23:36:53.033Z,5.14
2023-04-28T23:39:19.749Z,5.20
2023-04-28T23:41:46.414Z,5.29
2023-04-28T23:44:13.252Z,5.36
2023-04-28T23:46:39.903Z,5.34
2023-04-28T23:49:06.617Z,5.34
2023-04-28T23:51:33.256Z,5.55
2023-04-28T23:54:00.080Z,5.57
2023-04-28T23:56:26.946Z,5.52
2023-04-28T23:58:53.702Z,5.48
